PWSweather.com
Personal Weather Stations
Station Observations

ChardChardGB

Lat: 50.877408, Lon: -2.94964741

Elevation: 341

Station Type: WS3083

http://www.merriott-astro.co.uk/weather/index.htm

High Low Average
Temperature 57.6°F14.2°C 44.6°F7.0°C 50.4°F10.2°C
Dew Point 46.3°F7.9°C 40.8°F4.9°C 44.2°F6.8°C
Winds 13.2 mph 21.2 kmh Calm Calm 5.0 mph SSE8.0 kmh SSE
Wind Gusts 18.3 mph29.5 kmh -- 8.0 mph12.9 kmh
Humidity 88% 63% 79%
Pressure 29.72 in1006.4 mb 29.41 in995.9 mb -
Precipitation 0.00 in0.0 mm - -
Hour Temp Dew Point Humidity Winds Wind Gusts Pressure Precip Precip Rate Daily Precip Total
12:00 AM 49.3°F9.6°C 43.1°F6.2°C 79% 12.7 mph SSW20.4 kmh SSW 15.9 mph25.6 kmh 29.42 in996.3 mb 0.00 in0.0 mm 0.00 in0.0 mm 0.00 in0.0 mm
12:10 AM 49.5°F9.7°C 43.2°F6.2°C 79% 9.4 mph SSW15.1 kmh SSW 13.6 mph21.9 kmh 29.41 in995.9 mb 0.00 in0.0 mm 0.00 in0.0 mm 0.00 in0.0 mm
12:20 AM 49.5°F9.7°C 43.6°F6.4°C 80% 11.3 mph S18.2 kmh S 14.5 mph23.3 kmh 29.42 in996.3 mb 0.00 in0.0 mm 0.00 in0.0 mm 0.00 in0.0 mm
12:30 AM 49.5°F9.7°C 43.6°F6.4°C 80% 9.1 mph S14.6 kmh S 13.6 mph21.9 kmh 29.43 in996.6 mb 0.00 in0.0 mm 0.00 in0.0 mm 0.00 in0.0 mm
12:40 AM 49.6°F9.8°C 43.7°F6.5°C 80% 11.2 mph SSW18.0 kmh SSW 15.2 mph24.5 kmh 29.42 in996.3 mb 0.00 in0.0 mm 0.00 in0.0 mm 0.00 in0.0 mm
12:50 AM 49.6°F9.8°C 43.7°F6.5°C 80% 12.8 mph SSW20.6 kmh SSW 17.4 mph28.0 kmh 29.42 in996.3 mb 0.00 in0.0 mm 0.00 in0.0 mm 0.00 in0.0 mm
01:00 AM 49.6°F9.8°C 44.1°F6.7°C 81% 12.4 mph SSW20.0 kmh SSW 15.2 mph24.5 kmh 29.42 in996.3 mb 0.00 in0.0 mm 0.00 in0.0 mm 0.00 in0.0 mm
01:10 AM 49.8°F9.9°C 44.2°F6.8°C 81% 13.1 mph S21.1 kmh S 18.3 mph29.5 kmh 29.42 in996.3 mb 0.00 in0.0 mm 0.00 in0.0 mm 0.00 in0.0 mm
01:20 AM 49.6°F9.8°C 44.1°F6.7°C 81% 10.9 mph SW17.5 kmh SW 14.5 mph23.3 kmh 29.41 in995.9 mb 0.00 in0.0 mm 0.00 in0.0 mm 0.00 in0.0 mm
01:30 AM 49.6°F9.8°C 44.1°F6.7°C 81% 10.6 mph SSW17.1 kmh SSW 15.2 mph24.5 kmh 29.41 in995.9 mb 0.00 in0.0 mm 0.00 in0.0 mm 0.00 in0.0 mm
01:40 AM 49.8°F9.9°C 44.6°F7.0°C 82% 11.0 mph SW17.7 kmh SW 16.8 mph27.0 kmh 29.42 in996.3 mb 0.00 in0.0 mm 0.00 in0.0 mm 0.00 in0.0 mm
01:50 AM 49.8°F9.9°C 44.6°F7.0°C 82% 10.7 mph SW17.2 kmh SW 13.6 mph21.9 kmh 29.41 in995.9 mb 0.00 in0.0 mm 0.00 in0.0 mm 0.00 in0.0 mm
02:00 AM 49.6°F9.8°C 44.4°F6.9°C 82% 11.5 mph S18.5 kmh S 18.3 mph29.5 kmh 29.42 in996.3 mb 0.00 in0.0 mm 0.00 in0.0 mm 0.00 in0.0 mm
02:10 AM 49.8°F9.9°C 44.6°F7.0°C 82% 13.2 mph SSW21.2 kmh SSW 16.8 mph27.0 kmh 29.43 in996.6 mb 0.00 in0.0 mm 0.00 in0.0 mm 0.00 in0.0 mm
02:20 AM 49.8°F9.9°C 44.6°F7.0°C 82% 10.0 mph SSW16.1 kmh SSW 13.0 mph20.9 kmh 29.43 in996.6 mb 0.00 in0.0 mm 0.00 in0.0 mm 0.00 in0.0 mm
02:30 AM 49.8°F9.9°C 44.6°F7.0°C 82% 10.2 mph S16.4 kmh S 13.6 mph21.9 kmh 29.43 in996.6 mb 0.00 in0.0 mm 0.00 in0.0 mm 0.00 in0.0 mm
02:40 AM 49.8°F9.9°C 44.6°F7.0°C 82% 11.9 mph SW19.2 kmh SW 15.9 mph25.6 kmh 29.42 in996.3 mb 0.00 in0.0 mm 0.00 in0.0 mm 0.00 in0.0 mm
02:50 AM 49.8°F9.9°C 44.6°F7.0°C 82% 11.5 mph SW18.5 kmh SW 15.2 mph24.5 kmh 29.43 in996.6 mb 0.00 in0.0 mm 0.00 in0.0 mm 0.00 in0.0 mm
03:00 AM 49.8°F9.9°C 44.6°F7.0°C 82% 9.5 mph S15.3 kmh S 12.1 mph19.5 kmh 29.42 in996.3 mb 0.00 in0.0 mm 0.00 in0.0 mm 0.00 in0.0 mm
03:10 AM 49.8°F9.9°C 44.6°F7.0°C 82% 8.0 mph S12.9 kmh S 14.5 mph23.3 kmh 29.43 in996.6 mb 0.00 in0.0 mm 0.00 in0.0 mm 0.00 in0.0 mm
03:20 AM 49.8°F9.9°C 44.6°F7.0°C 82% 9.4 mph SSW15.1 kmh SSW 16.8 mph27.0 kmh 29.42 in996.3 mb 0.00 in0.0 mm 0.00 in0.0 mm 0.00 in0.0 mm
03:30 AM 50.0°F10.0°C 45.0°F7.2°C 83% 10.0 mph S16.1 kmh S 13.6 mph21.9 kmh 29.42 in996.3 mb 0.00 in0.0 mm 0.00 in0.0 mm 0.00 in0.0 mm
03:40 AM 50.0°F10.0°C 45.0°F7.2°C 83% 10.7 mph SSW17.2 kmh SSW 16.8 mph27.0 kmh 29.44 in997.0 mb 0.00 in0.0 mm 0.00 in0.0 mm 0.00 in0.0 mm
03:50 AM 50.2°F10.1°C 45.2°F7.3°C 83% 11.1 mph SW17.9 kmh SW 15.9 mph25.6 kmh 29.44 in997.0 mb 0.00 in0.0 mm 0.00 in0.0 mm 0.00 in0.0 mm
04:00 AM 50.2°F10.1°C 44.9°F7.2°C 82% 10.1 mph SSW16.3 kmh SSW 16.8 mph27.0 kmh 29.44 in997.0 mb 0.00 in0.0 mm 0.00 in0.0 mm 0.00 in0.0 mm
04:10 AM 50.2°F10.1°C 44.9°F7.2°C 82% 7.5 mph SW12.1 kmh SW 13.6 mph21.9 kmh 29.44 in997.0 mb 0.00 in0.0 mm 0.00 in0.0 mm 0.00 in0.0 mm
04:20 AM 50.2°F10.1°C 44.9°F7.2°C 82% 3.2 mph SE5.1 kmh SE 9.8 mph15.8 kmh 29.46 in997.6 mb 0.00 in0.0 mm 0.00 in0.0 mm 0.00 in0.0 mm
04:30 AM 50.0°F10.0°C 44.7°F7.1°C 82% 4.7 mph SW7.6 kmh SW 8.3 mph13.4 kmh 29.46 in997.6 mb 0.00 in0.0 mm 0.00 in0.0 mm 0.00 in0.0 mm
04:40 AM 50.0°F10.0°C 44.7°F7.1°C 82% 6.9 mph S11.1 kmh S 9.8 mph15.8 kmh 29.46 in997.6 mb 0.00 in0.0 mm 0.00 in0.0 mm 0.00 in0.0 mm
04:50 AM 50.0°F10.0°C 44.7°F7.1°C 82% 6.9 mph SW11.1 kmh SW 10.7 mph17.2 kmh 29.46 in997.6 mb 0.00 in0.0 mm 0.00 in0.0 mm 0.00 in0.0 mm
05:00 AM 50.0°F10.0°C 45.0°F7.2°C 83% 7.1 mph SW11.4 kmh SW 10.7 mph17.2 kmh 29.46 in997.6 mb 0.00 in0.0 mm 0.00 in0.0 mm 0.00 in0.0 mm
05:10 AM 50.0°F10.0°C 45.0°F7.2°C 83% 7.3 mph SSW11.7 kmh SSW 11.4 mph18.3 kmh 29.46 in997.6 mb 0.00 in0.0 mm 0.00 in0.0 mm 0.00 in0.0 mm
05:20 AM 50.0°F10.0°C 45.0°F7.2°C 83% 7.8 mph S12.6 kmh S 11.4 mph18.3 kmh 29.47 in998.0 mb 0.00 in0.0 mm 0.00 in0.0 mm 0.00 in0.0 mm
05:30 AM 50.0°F10.0°C 45.0°F7.2°C 83% 6.9 mph SSW11.1 kmh SSW 11.4 mph18.3 kmh 29.47 in998.0 mb 0.00 in0.0 mm 0.00 in0.0 mm 0.00 in0.0 mm
05:40 AM 50.0°F10.0°C 45.0°F7.2°C 83% 4.4 mph SW7.1 kmh SW 7.6 mph12.2 kmh 29.48 in998.3 mb 0.00 in0.0 mm 0.00 in0.0 mm 0.00 in0.0 mm
05:50 AM 50.0°F10.0°C 45.0°F7.2°C 83% 4.0 mph S6.4 kmh S 7.6 mph12.2 kmh 29.48 in998.3 mb 0.00 in0.0 mm 0.00 in0.0 mm 0.00 in0.0 mm
06:00 AM 50.0°F10.0°C 45.0°F7.2°C 83% 4.5 mph S7.2 kmh S 9.2 mph14.8 kmh 29.48 in998.3 mb 0.00 in0.0 mm 0.00 in0.0 mm 0.00 in0.0 mm
06:10 AM 50.0°F10.0°C 45.0°F7.2°C 83% 2.2 mph SW3.5 kmh SW 5.4 mph8.7 kmh 29.49 in998.6 mb 0.00 in0.0 mm 0.00 in0.0 mm 0.00 in0.0 mm
06:20 AM 50.0°F10.0°C 45.4°F7.4°C 84% 2.9 mph SW4.7 kmh SW 6.9 mph11.1 kmh 29.48 in998.3 mb 0.00 in0.0 mm 0.00 in0.0 mm 0.00 in0.0 mm
06:30 AM 50.0°F10.0°C 45.4°F7.4°C 84% 2.1 mph SW3.4 kmh SW 5.4 mph8.7 kmh 29.49 in998.6 mb 0.00 in0.0 mm 0.00 in0.0 mm 0.00 in0.0 mm
06:40 AM 50.0°F10.0°C 45.4°F7.4°C 84% 3.5 mph SSW5.6 kmh SSW 6.9 mph11.1 kmh 29.49 in998.6 mb 0.00 in0.0 mm 0.00 in0.0 mm 0.00 in0.0 mm
06:50 AM 50.0°F10.0°C 45.4°F7.4°C 84% 3.9 mph SW6.3 kmh SW 6.0 mph9.7 kmh 29.50 in999.0 mb 0.00 in0.0 mm 0.00 in0.0 mm 0.00 in0.0 mm
07:00 AM 50.2°F10.1°C 45.5°F7.5°C 84% 5.0 mph SSW8.0 kmh SSW 6.9 mph11.1 kmh 29.50 in999.0 mb 0.00 in0.0 mm 0.00 in0.0 mm 0.00 in0.0 mm
07:10 AM 50.2°F10.1°C 45.2°F7.3°C 83% 5.9 mph S9.5 kmh S 8.3 mph13.4 kmh 29.50 in999.0 mb 0.00 in0.0 mm 0.00 in0.0 mm 0.00 in0.0 mm
07:20 AM 50.0°F10.0°C 45.0°F7.2°C 83% 4.1 mph SW6.6 kmh SW 7.6 mph12.2 kmh 29.50 in999.0 mb 0.00 in0.0 mm 0.00 in0.0 mm 0.00 in0.0 mm
07:30 AM 50.2°F10.1°C 45.2°F7.3°C 83% 4.6 mph SSW7.4 kmh SSW 7.6 mph12.2 kmh 29.50 in999.0 mb 0.00 in0.0 mm 0.00 in0.0 mm 0.00 in0.0 mm
07:40 AM 50.2°F10.1°C 45.2°F7.3°C 83% 2.1 mph SW3.4 kmh SW 4.5 mph7.2 kmh 29.52 in999.7 mb 0.00 in0.0 mm 0.00 in0.0 mm 0.00 in0.0 mm
07:50 AM 50.2°F10.1°C 45.2°F7.3°C 83% 4.6 mph SSW7.4 kmh SSW 6.9 mph11.1 kmh 29.52 in999.7 mb 0.00 in0.0 mm 0.00 in0.0 mm 0.00 in0.0 mm
08:00 AM 50.2°F10.1°C 45.5°F7.5°C 84% 7.7 mph SW12.4 kmh SW 10.7 mph17.2 kmh 29.52 in999.7 mb 0.00 in0.0 mm 0.00 in0.0 mm 0.00 in0.0 mm
08:10 AM 50.4°F10.2°C 45.7°F7.6°C 84% 8.2 mph SW13.2 kmh SW 10.7 mph17.2 kmh 29.52 in999.7 mb 0.00 in0.0 mm 0.00 in0.0 mm 0.00 in0.0 mm
08:20 AM 50.4°F10.2°C 45.7°F7.6°C 84% 8.0 mph S12.9 kmh S 12.1 mph19.5 kmh 29.52 in999.7 mb 0.00 in0.0 mm 0.00 in0.0 mm 0.00 in0.0 mm
08:41 AM 50.7°F10.4°C 46.1°F7.8°C 84% 6.8 mph SW10.9 kmh SW 12.1 mph19.5 kmh 29.53 in1000.0 mb 0.00 in0.0 mm 0.00 in0.0 mm 0.00 in0.0 mm
08:50 AM 50.9°F10.5°C 45.9°F7.7°C 83% 7.1 mph S11.4 kmh S 9.2 mph14.8 kmh 29.52 in999.7 mb 0.00 in0.0 mm 0.00 in0.0 mm 0.00 in0.0 mm
09:00 AM 51.3°F10.7°C 46.3°F7.9°C 83% 6.1 mph SW9.8 kmh SW 9.2 mph14.8 kmh 29.53 in1000.0 mb 0.00 in0.0 mm 0.00 in0.0 mm 0.00 in0.0 mm
09:10 AM 51.3°F10.7°C 46.0°F7.8°C 82% 8.7 mph SW14.0 kmh SW 13.0 mph20.9 kmh 29.54 in1000.3 mb 0.00 in0.0 mm 0.00 in0.0 mm 0.00 in0.0 mm
09:20 AM 51.3°F10.7°C 46.0°F7.8°C 82% 7.5 mph SSW12.1 kmh SSW 9.2 mph14.8 kmh 29.53 in1000.0 mb 0.00 in0.0 mm 0.00 in0.0 mm 0.00 in0.0 mm
09:30 AM 51.4°F10.8°C 46.1°F7.8°C 82% 5.5 mph S8.9 kmh S 9.8 mph15.8 kmh 29.54 in1000.3 mb 0.00 in0.0 mm 0.00 in0.0 mm 0.00 in0.0 mm
09:40 AM 51.4°F10.8°C 45.8°F7.7°C 81% 5.6 mph SW9.0 kmh SW 10.7 mph17.2 kmh 29.55 in1000.7 mb 0.00 in0.0 mm 0.00 in0.0 mm 0.00 in0.0 mm
09:50 AM 51.4°F10.8°C 45.8°F7.7°C 81% 4.8 mph S7.7 kmh S 9.8 mph15.8 kmh 29.55 in1000.7 mb 0.00 in0.0 mm 0.00 in0.0 mm 0.00 in0.0 mm
10:00 AM 51.3°F10.7°C 45.6°F7.6°C 81% 6.8 mph SSW10.9 kmh SSW 12.1 mph19.5 kmh 29.55 in1000.7 mb 0.00 in0.0 mm 0.00 in0.0 mm 0.00 in0.0 mm
10:10 AM 51.3°F10.7°C 45.3°F7.4°C 80% 7.7 mph SSW12.4 kmh SSW 12.1 mph19.5 kmh 29.56 in1001.0 mb 0.00 in0.0 mm 0.00 in0.0 mm 0.00 in0.0 mm
10:20 AM 51.4°F10.8°C 45.5°F7.5°C 80% 6.5 mph S10.5 kmh S 9.8 mph15.8 kmh 29.56 in1001.0 mb 0.00 in0.0 mm 0.00 in0.0 mm 0.00 in0.0 mm
10:30 AM 51.4°F10.8°C 45.2°F7.3°C 79% 6.6 mph S10.6 kmh S 10.7 mph17.2 kmh 29.57 in1001.4 mb 0.00 in0.0 mm 0.00 in0.0 mm 0.00 in0.0 mm
10:40 AM 51.4°F10.8°C 45.2°F7.3°C 79% 5.9 mph SW9.5 kmh SW 10.7 mph17.2 kmh 29.57 in1001.4 mb 0.00 in0.0 mm 0.00 in0.0 mm 0.00 in0.0 mm
10:50 AM 51.3°F10.7°C 45.0°F7.2°C 79% 7.2 mph SSW11.6 kmh SSW 11.4 mph18.3 kmh 29.57 in1001.4 mb 0.00 in0.0 mm 0.00 in0.0 mm 0.00 in0.0 mm
11:00 AM 51.6°F10.9°C 45.7°F7.6°C 80% 6.6 mph SW10.6 kmh SW 10.7 mph17.2 kmh 29.57 in1001.4 mb 0.00 in0.0 mm 0.00 in0.0 mm 0.00 in0.0 mm
11:10 AM 52.0°F11.1°C 46.0°F7.8°C 80% 4.9 mph SSW7.9 kmh SSW 8.3 mph13.4 kmh 29.58 in1001.7 mb 0.00 in0.0 mm 0.00 in0.0 mm 0.00 in0.0 mm
11:20 AM 52.0°F11.1°C 45.7°F7.6°C 79% 6.3 mph S10.1 kmh S 12.1 mph19.5 kmh 29.57 in1001.4 mb 0.00 in0.0 mm 0.00 in0.0 mm 0.00 in0.0 mm
11:30 AM 52.2°F11.2°C 45.5°F7.5°C 78% 7.7 mph SSW12.4 kmh SSW 9.8 mph15.8 kmh 29.57 in1001.4 mb 0.00 in0.0 mm 0.00 in0.0 mm 0.00 in0.0 mm
11:40 AM 52.2°F11.2°C 45.5°F7.5°C 78% 6.7 mph S10.8 kmh S 9.8 mph15.8 kmh 29.57 in1001.4 mb 0.00 in0.0 mm 0.00 in0.0 mm 0.00 in0.0 mm
11:50 AM 52.3°F11.3°C 45.7°F7.6°C 78% 5.4 mph S8.7 kmh S 8.3 mph13.4 kmh 29.58 in1001.7 mb 0.00 in0.0 mm 0.00 in0.0 mm 0.00 in0.0 mm
12:00 PM 52.5°F11.4°C 45.9°F7.7°C 78% 6.8 mph SSW10.9 kmh SSW 9.2 mph14.8 kmh 29.58 in1001.7 mb 0.00 in0.0 mm 0.00 in0.0 mm 0.00 in0.0 mm
12:10 PM 52.7°F11.5°C 45.7°F7.6°C 77% 5.2 mph SSW8.4 kmh SSW 10.7 mph17.2 kmh 29.58 in1001.7 mb 0.00 in0.0 mm 0.00 in0.0 mm 0.00 in0.0 mm
12:20 PM 52.3°F11.3°C 45.0°F7.2°C 76% 8.3 mph SW13.4 kmh SW 11.4 mph18.3 kmh 29.58 in1001.7 mb 0.00 in0.0 mm 0.00 in0.0 mm 0.00 in0.0 mm
12:30 PM 52.5°F11.4°C 45.2°F7.3°C 76% 8.1 mph S13.0 kmh S 11.4 mph18.3 kmh 29.57 in1001.4 mb 0.00 in0.0 mm 0.00 in0.0 mm 0.00 in0.0 mm
12:40 PM 52.7°F11.5°C 45.4°F7.4°C 76% 7.2 mph S11.6 kmh S 10.7 mph17.2 kmh 29.57 in1001.4 mb 0.00 in0.0 mm 0.00 in0.0 mm 0.00 in0.0 mm
12:50 PM 52.9°F11.6°C 45.5°F7.5°C 76% 6.5 mph S10.5 kmh S 10.7 mph17.2 kmh 29.57 in1001.4 mb 0.00 in0.0 mm 0.00 in0.0 mm 0.00 in0.0 mm
01:00 PM 52.9°F11.6°C 45.2°F7.3°C 75% 8.7 mph SSW14.0 kmh SSW 12.1 mph19.5 kmh 29.57 in1001.4 mb 0.00 in0.0 mm 0.00 in0.0 mm 0.00 in0.0 mm
01:10 PM 52.9°F11.6°C 45.2°F7.3°C 75% 7.4 mph S11.9 kmh S 14.5 mph23.3 kmh 29.57 in1001.4 mb 0.00 in0.0 mm 0.00 in0.0 mm 0.00 in0.0 mm
01:20 PM 53.1°F11.7°C 44.6°F7.0°C 73% 8.7 mph SSW14.0 kmh SSW 13.0 mph20.9 kmh 29.57 in1001.4 mb 0.00 in0.0 mm 0.00 in0.0 mm 0.00 in0.0 mm
01:30 PM 53.6°F12.0°C 45.2°F7.3°C 73% 6.5 mph SW10.5 kmh SW 10.7 mph17.2 kmh 29.58 in1001.7 mb 0.00 in0.0 mm 0.00 in0.0 mm 0.00 in0.0 mm
01:40 PM 54.0°F12.2°C 45.5°F7.5°C 73% 5.9 mph S9.5 kmh S 9.2 mph14.8 kmh 29.58 in1001.7 mb 0.00 in0.0 mm 0.00 in0.0 mm 0.00 in0.0 mm
01:50 PM 53.8°F12.1°C 45.3°F7.4°C 73% 5.7 mph SSW9.2 kmh SSW 9.2 mph14.8 kmh 29.58 in1001.7 mb 0.00 in0.0 mm 0.00 in0.0 mm 0.00 in0.0 mm
02:00 PM 54.0°F12.2°C 45.5°F7.5°C 73% 2.9 mph S4.7 kmh S 9.8 mph15.8 kmh 29.58 in1001.7 mb 0.00 in0.0 mm 0.00 in0.0 mm 0.00 in0.0 mm
02:10 PM 54.1°F12.3°C 45.3°F7.4°C 72% 1.9 mph SSW3.1 kmh SSW 9.8 mph15.8 kmh 29.59 in1002.0 mb 0.00 in0.0 mm 0.00 in0.0 mm 0.00 in0.0 mm
02:20 PM 54.1°F12.3°C 45.0°F7.2°C 71% 0.8 mph SW1.3 kmh SW 3.8 mph6.1 kmh 29.59 in1002.0 mb 0.00 in0.0 mm 0.00 in0.0 mm 0.00 in0.0 mm
02:30 PM 54.3°F12.4°C 45.5°F7.5°C 72% 0.5 mph S0.8 kmh S 1.6 mph2.6 kmh 29.59 in1002.0 mb 0.00 in0.0 mm 0.00 in0.0 mm 0.00 in0.0 mm
02:40 PM 55.2°F12.9°C 44.9°F7.2°C 68% 0.1 mph SSE0.2 kmh SSE 0.7 mph1.1 kmh 29.58 in1001.7 mb 0.00 in0.0 mm 0.00 in0.0 mm 0.00 in0.0 mm
02:50 PM 57.6°F14.2°C 45.5°F7.5°C 64% 0.1 mph SSE0.2 kmh SSE 0.7 mph1.1 kmh 29.59 in1002.0 mb 0.00 in0.0 mm 0.00 in0.0 mm 0.00 in0.0 mm
03:00 PM 56.8°F13.8°C 44.4°F6.9°C 63% 2.5 mph SSW4.0 kmh SSW 11.4 mph18.3 kmh 29.59 in1002.0 mb 0.00 in0.0 mm 0.00 in0.0 mm 0.00 in0.0 mm
03:10 PM 55.9°F13.3°C 43.9°F6.6°C 64% 2.2 mph S3.5 kmh S 7.6 mph12.2 kmh 29.59 in1002.0 mb 0.00 in0.0 mm 0.00 in0.0 mm 0.00 in0.0 mm
03:20 PM 56.5°F13.6°C 44.5°F6.9°C 64% 0.6 mph SW1.0 kmh SW 9.2 mph14.8 kmh 29.59 in1002.0 mb 0.00 in0.0 mm 0.00 in0.0 mm 0.00 in0.0 mm
03:30 PM 56.8°F13.8°C 44.4°F6.9°C 63% 1.8 mph SW2.9 kmh SW 9.8 mph15.8 kmh 29.60 in1002.4 mb 0.00 in0.0 mm 0.00 in0.0 mm 0.00 in0.0 mm
03:40 PM 56.8°F13.8°C 44.4°F6.9°C 63% 0.2 mph S0.3 kmh S 2.2 mph3.5 kmh 29.59 in1002.0 mb 0.00 in0.0 mm 0.00 in0.0 mm 0.00 in0.0 mm
03:50 PM 55.8°F13.2°C 43.8°F6.6°C 64% 0.3 mph S0.5 kmh S 2.2 mph3.5 kmh 29.60 in1002.4 mb 0.00 in0.0 mm 0.00 in0.0 mm 0.00 in0.0 mm
04:00 PM 54.9°F12.7°C 43.3°F6.3°C 65% 1.8 mph SW2.9 kmh SW 11.4 mph18.3 kmh 29.59 in1002.0 mb 0.00 in0.0 mm 0.00 in0.0 mm 0.00 in0.0 mm
04:10 PM 54.3°F12.4°C 45.1°F7.3°C 71% Calm Calm 0.7 mph1.1 kmh 29.60 in1002.4 mb 0.00 in0.0 mm 0.00 in0.0 mm 0.00 in0.0 mm
04:20 PM 54.7°F12.6°C 43.9°F6.6°C 67% 1.7 mph NNW2.7 kmh NNW 10.7 mph17.2 kmh 29.59 in1002.0 mb 0.00 in0.0 mm 0.00 in0.0 mm 0.00 in0.0 mm
04:30 PM 54.3°F12.4°C 44.8°F7.1°C 70% Calm Calm 0.7 mph1.1 kmh 29.60 in1002.4 mb 0.00 in0.0 mm 0.00 in0.0 mm 0.00 in0.0 mm
04:40 PM 52.3°F11.3°C 43.6°F6.4°C 72% 1.3 mph S2.1 kmh S 11.4 mph18.3 kmh 29.60 in1002.4 mb 0.00 in0.0 mm 0.00 in0.0 mm 0.00 in0.0 mm
04:50 PM 51.6°F10.9°C 43.3°F6.3°C 73% 0.6 mph SE1.0 kmh SE 7.6 mph12.2 kmh 29.60 in1002.4 mb 0.00 in0.0 mm 0.00 in0.0 mm 0.00 in0.0 mm
05:00 PM 51.1°F10.6°C 43.1°F6.2°C 74% 1.4 mph SSW2.3 kmh SSW 7.6 mph12.2 kmh 29.60 in1002.4 mb 0.00 in0.0 mm 0.00 in0.0 mm 0.00 in0.0 mm
05:10 PM 50.7°F10.4°C 43.1°F6.2°C 75% 0.1 mph SSE0.2 kmh SSE 3.8 mph6.1 kmh 29.61 in1002.7 mb 0.00 in0.0 mm 0.00 in0.0 mm 0.00 in0.0 mm
05:20 PM 50.5°F10.3°C 43.3°F6.3°C 76% Calm Calm -- 29.61 in1002.7 mb 0.00 in0.0 mm 0.00 in0.0 mm 0.00 in0.0 mm
05:30 PM 50.4°F10.2°C 43.4°F6.3°C 77% Calm Calm -- 29.61 in1002.7 mb 0.00 in0.0 mm 0.00 in0.0 mm 0.00 in0.0 mm
05:40 PM 50.0°F10.0°C 43.1°F6.2°C 77% Calm Calm -- 29.61 in1002.7 mb 0.00 in0.0 mm 0.00 in0.0 mm 0.00 in0.0 mm
05:50 PM 49.6°F9.8°C 43.1°F6.2°C 78% 0.1 mph S0.2 kmh S 0.7 mph1.1 kmh 29.62 in1003.0 mb 0.00 in0.0 mm 0.00 in0.0 mm 0.00 in0.0 mm
06:00 PM 49.5°F9.7°C 43.2°F6.2°C 79% 0.1 mph S0.2 kmh S 0.7 mph1.1 kmh 29.63 in1003.4 mb 0.00 in0.0 mm 0.00 in0.0 mm 0.00 in0.0 mm
06:10 PM 49.1°F9.5°C 42.9°F6.1°C 79% Calm Calm -- 29.63 in1003.4 mb 0.00 in0.0 mm 0.00 in0.0 mm 0.00 in0.0 mm
06:20 PM 48.6°F9.2°C 42.7°F5.9°C 80% Calm Calm -- 29.63 in1003.4 mb 0.00 in0.0 mm 0.00 in0.0 mm 0.00 in0.0 mm
06:30 PM 48.4°F9.1°C 42.5°F5.8°C 80% Calm Calm -- 29.64 in1003.7 mb 0.00 in0.0 mm 0.00 in0.0 mm 0.00 in0.0 mm
06:40 PM 48.4°F9.1°C 42.5°F5.8°C 80% Calm Calm -- 29.65 in1004.1 mb 0.00 in0.0 mm 0.00 in0.0 mm 0.00 in0.0 mm
06:50 PM 48.4°F9.1°C 42.8°F6.0°C 81% 0.1 mph SW0.2 kmh SW 0.7 mph1.1 kmh 29.65 in1004.1 mb 0.00 in0.0 mm 0.00 in0.0 mm 0.00 in0.0 mm
07:00 PM 48.4°F9.1°C 42.8°F6.0°C 81% Calm Calm -- 29.65 in1004.1 mb 0.00 in0.0 mm 0.00 in0.0 mm 0.00 in0.0 mm
07:10 PM 48.6°F9.2°C 43.0°F6.1°C 81% Calm Calm -- 29.65 in1004.1 mb 0.00 in0.0 mm 0.00 in0.0 mm 0.00 in0.0 mm
07:20 PM 48.7°F9.3°C 43.5°F6.4°C 82% 0.6 mph S1.0 kmh S 6.9 mph11.1 kmh 29.65 in1004.1 mb 0.00 in0.0 mm 0.00 in0.0 mm 0.00 in0.0 mm
07:30 PM 48.9°F9.4°C 43.7°F6.5°C 82% Calm Calm -- 29.65 in1004.1 mb 0.00 in0.0 mm 0.00 in0.0 mm 0.00 in0.0 mm
07:40 PM 48.7°F9.3°C 43.5°F6.4°C 82% 0.2 mph SSW0.3 kmh SSW 0.7 mph1.1 kmh 29.66 in1004.4 mb 0.00 in0.0 mm 0.00 in0.0 mm 0.00 in0.0 mm
07:50 PM 48.6°F9.2°C 43.3°F6.3°C 82% 0.1 mph SW0.2 kmh SW 0.7 mph1.1 kmh 29.66 in1004.4 mb 0.00 in0.0 mm 0.00 in0.0 mm 0.00 in0.0 mm
08:00 PM 48.2°F9.0°C 43.0°F6.1°C 82% Calm Calm -- 29.67 in1004.7 mb 0.00 in0.0 mm 0.00 in0.0 mm 0.00 in0.0 mm
08:10 PM 47.8°F8.8°C 42.6°F5.9°C 82% Calm Calm -- 29.68 in1005.1 mb 0.00 in0.0 mm 0.00 in0.0 mm 0.00 in0.0 mm
08:20 PM 47.7°F8.7°C 42.4°F5.8°C 82% Calm Calm -- 29.68 in1005.1 mb 0.00 in0.0 mm 0.00 in0.0 mm 0.00 in0.0 mm
08:30 PM 47.5°F8.6°C 42.3°F5.7°C 82% Calm Calm -- 29.68 in1005.1 mb 0.00 in0.0 mm 0.00 in0.0 mm 0.00 in0.0 mm
08:40 PM 47.3°F8.5°C 42.1°F5.6°C 82% Calm Calm -- 29.68 in1005.1 mb 0.00 in0.0 mm 0.00 in0.0 mm 0.00 in0.0 mm
08:50 PM 47.1°F8.4°C 41.9°F5.5°C 82% Calm Calm -- 29.69 in1005.4 mb 0.00 in0.0 mm 0.00 in0.0 mm 0.00 in0.0 mm
09:00 PM 47.3°F8.5°C 42.1°F5.6°C 82% Calm Calm -- 29.69 in1005.4 mb 0.00 in0.0 mm 0.00 in0.0 mm 0.00 in0.0 mm
09:10 PM 47.3°F8.5°C 42.1°F5.6°C 82% Calm Calm -- 29.69 in1005.4 mb 0.00 in0.0 mm 0.00 in0.0 mm 0.00 in0.0 mm
09:20 PM 47.1°F8.4°C 41.9°F5.5°C 82% Calm Calm -- 29.69 in1005.4 mb 0.00 in0.0 mm 0.00 in0.0 mm 0.00 in0.0 mm
09:30 PM 47.1°F8.4°C 41.9°F5.5°C 82% Calm Calm -- 29.70 in1005.8 mb 0.00 in0.0 mm 0.00 in0.0 mm 0.00 in0.0 mm
09:40 PM 46.9°F8.3°C 41.7°F5.4°C 82% Calm Calm -- 29.70 in1005.8 mb 0.00 in0.0 mm 0.00 in0.0 mm 0.00 in0.0 mm
09:50 PM 46.9°F8.3°C 41.7°F5.4°C 82% Calm Calm -- 29.70 in1005.8 mb 0.00 in0.0 mm 0.00 in0.0 mm 0.00 in0.0 mm
10:00 PM 47.1°F8.4°C 42.2°F5.7°C 83% Calm Calm -- 29.70 in1005.8 mb 0.00 in0.0 mm 0.00 in0.0 mm 0.00 in0.0 mm
10:10 PM 47.1°F8.4°C 42.2°F5.7°C 83% Calm Calm -- 29.70 in1005.8 mb 0.00 in0.0 mm 0.00 in0.0 mm 0.00 in0.0 mm
10:20 PM 46.9°F8.3°C 42.1°F5.6°C 83% Calm Calm -- 29.70 in1005.8 mb 0.00 in0.0 mm 0.00 in0.0 mm 0.00 in0.0 mm
10:30 PM 46.8°F8.2°C 41.9°F5.5°C 83% Calm Calm -- 29.70 in1005.8 mb 0.00 in0.0 mm 0.00 in0.0 mm 0.00 in0.0 mm
10:40 PM 46.6°F8.1°C 41.7°F5.4°C 83% Calm Calm -- 29.70 in1005.8 mb 0.00 in0.0 mm 0.00 in0.0 mm 0.00 in0.0 mm
10:50 PM 46.4°F8.0°C 41.5°F5.3°C 83% Calm Calm -- 29.70 in1005.8 mb 0.00 in0.0 mm 0.00 in0.0 mm 0.00 in0.0 mm
11:00 PM 46.2°F7.9°C 41.3°F5.2°C 83% Calm Calm -- 29.70 in1005.8 mb 0.00 in0.0 mm 0.00 in0.0 mm 0.00 in0.0 mm
11:10 PM 46.0°F7.8°C 41.2°F5.1°C 83% Calm Calm -- 29.72 in1006.4 mb 0.00 in0.0 mm 0.00 in0.0 mm 0.00 in0.0 mm
11:20 PM 46.0°F7.8°C 41.2°F5.1°C 83% Calm Calm -- 29.71 in1006.1 mb 0.00 in0.0 mm 0.00 in0.0 mm 0.00 in0.0 mm
11:30 PM 45.7°F7.6°C 40.8°F4.9°C 83% Calm Calm -- 29.71 in1006.1 mb 0.00 in0.0 mm 0.00 in0.0 mm 0.00 in0.0 mm
11:40 PM 44.8°F7.1°C 41.4°F5.2°C 88% Calm Calm -- 29.72 in1006.4 mb 0.00 in0.0 mm 0.00 in0.0 mm 0.00 in0.0 mm
11:50 PM 44.6°F7.0°C 41.3°F5.2°C 88% Calm Calm -- 29.71 in1006.1 mb 0.00 in0.0 mm 0.00 in0.0 mm 0.00 in0.0 mm